Surface observations / Europe / LIPR

Quebec | Canada | USA | France | UK | Europe | Elsewhere

Display: Info & Location for LIPR | Help decoding METAR

LIPR RIMINI (CIV/IT-AFB) -- IY
Raw surface observations for station LIPR
LIPR 182045Z 19003KT CAVOK 10/07 Q1005=
LIPR 182015Z 19002KT CAVOK 10/07 Q1005=
LIPR 181945Z 19001KT CAVOK 11/07 Q1005=
LIPR 181915Z 18002KT CAVOK 11/05 Q1005=
LIPR 181845Z 17002KT CAVOK 11/05 Q1005=
LIPR 181815Z 13002KT CAVOK 13/05 Q1005=
LIPR 181745Z 13002KT CAVOK 13/06 Q1005=
LIPR 181715Z 13004KT CAVOK 13/07 Q1005=
LIPR 181645Z 10004KT CAVOK 13/06 Q1005=
LIPR 181615Z 10005KT CAVOK 13/07 Q1005=
LIPR 181545Z 09006KT CAVOK 13/08 Q1005=
LIPR 181515Z 10007KT CAVOK 13/07 Q1006=
LIPR 181445Z 09009KT CAVOK 14/08 Q1006=
LIPR 181415Z 09009KT CAVOK 14/07 Q1006=
LIPR 181345Z 09008KT CAVOK 13/06 Q1006=
LIPR 181315Z 08008KT CAVOK 13/05 Q1007=
LIPR 181245Z 08008KT CAVOK 14/05 Q1007=
LIPR 181215Z 08007KT CAVOK 14/05 Q1007=
LIPR 181145Z 08006KT CAVOK 14/04 Q1008=
LIPR 181115Z 07006KT CAVOK 14/04 Q1008=
LIPR 181045Z 07006KT CAVOK 15/04 Q1009=
LIPR 181015Z 06006KT CAVOK 15/02 Q1009=
LIPR 180945Z 03005KT CAVOK 16/02 Q1009=
LIPR 180915Z 03004KT CAVOK 15/02 Q1010=
LIPR 180845Z 33002KT CAVOK 15/03 Q1010=
LIPR 180815Z 00000KT CAVOK 15/03 Q1010=
LIPR 180745Z 28002KT CAVOK 14/04 Q1010=
LIPR 180715Z 27004KT CAVOK 13/05 Q1010=
LIPR 180645Z 26004KT CAVOK 12/06 Q1011=
LIPR 180615Z 25003KT CAVOK 10/06 Q1011=
LIPR 180545Z 23004KT CAVOK 07/05 Q1011=
LIPR 180515Z 23002KT CAVOK 05/03 Q1012=
LIPR 180445Z 02003KT CAVOK 05/03 Q1012=
LIPR 180415Z 25003KT CAVOK 05/03 Q1012=
LIPR 180345Z 00000KT CAVOK 06/04 Q1012=
LIPR 180315Z 00000KT CAVOK 06/04 Q1012=
LIPR 180245Z 22001KT CAVOK 06/04 Q1012=
LIPR 180215Z 27004KT CAVOK 06/04 Q1013=
LIPR 180145Z 26005KT CAVOK 06/04 Q1013=
LIPR 180115Z 27004KT CAVOK 06/04 Q1014=
LIPR 180045Z 00000KT CAVOK 05/04 Q1014=
LIPR 180015Z 00000KT CAVOK 05/04 Q1015=
LIPR 172345Z 00000KT CAVOK 06/04 Q1015=
LIPR 172315Z 00000KT CAVOK 06/04 Q1015=
LIPR 172245Z 00000KT CAVOK 06/04 Q1015=
LIPR 172215Z 00000KT CAVOK 06/04 Q1015=
LIPR 172145Z 00000KT CAVOK 07/04 Q1015=
LIPR 172115Z 00000KT CAVOK 08/04 Q1015=
LIPR 172045Z 22002KT CAVOK 09/05 Q1015 RMK SKC VIS MIN 9999 WIND THR31 00000KT BLU=